Peru, Nebraska
Current Conditions -  °F | °C
As of 8:35 AM on Friday 24 Oct 2014 (Local Time) from KAFK Reporting Station
Haze Haze  
Wind Chill: 58°   Ceiling: Unl
Heat Index: 58°   Visibility: 2.5mi
Dew Point: 58°   Wind: 10mph
Humidity: 100%   Direction: 200°SSW
Pressure: 29.97"   Gusts: NA
Location:  40.47°N, 95.73°W
Report Text: KAFK 241335Z AUTO 20009KT 2 1/2SM BR CLR 14/14 A2997 RMK AO2 T01430143
Loading
Personal Weather Stations






























Interactive Weather Map
Tropical Storm Tracking
New forecast layout! Learn more

10-Day Weather Forecast

Advertisements
Track Severe Weather on mobile